createdAt,value
2022-09-07T08:24:34.744Z,49.22
2022-09-07T08:26:37.529Z,49.22
2022-09-07T08:28:42.436Z,48.20
2022-09-07T08:30:44.778Z,47.86
2022-09-07T08:32:47.350Z,46.93
2022-09-07T08:34:49.638Z,47.48
2022-09-07T08:36:51.890Z,46.64
2022-09-07T08:38:54.419Z,45.99
2022-09-07T08:40:57.805Z,46.19
2022-09-07T08:43:08.920Z,45.56
2022-09-07T08:45:18.643Z,45.78
2022-09-07T08:47:39.682Z,44.87
2022-09-07T08:50:17.468Z,44.87
2022-09-07T08:52:33.012Z,44.74
2022-09-07T08:54:37.063Z,43.26
2022-09-07T08:57:20.462Z,42.44
2022-09-07T08:59:35.839Z,42.62
2022-09-07T09:01:42.289Z,42.10
2022-09-07T09:04:17.322Z,41.89
2022-09-07T09:06:33.665Z,41.92
2022-09-07T09:08:49.997Z,42.87
2022-09-07T09:11:10.668Z,40.93
2022-09-07T09:13:28.907Z,41.33
2022-09-07T09:15:45.477Z,42.17
2022-09-07T09:17:50.721Z,42.22
2022-09-07T09:20:05.657Z,41.98
2022-09-07T09:22:07.855Z,41.10
2022-09-07T09:24:19.340Z,40.31
2022-09-07T09:26:27.020Z,39.49
2022-09-07T09:28:31.879Z,39.56
2022-09-07T09:30:34.813Z,38.92
2022-09-07T09:32:41.587Z,38.56
2022-09-07T09:35:23.289Z,38.65
2022-09-07T09:37:34.699Z,37.75
2022-09-07T09:39:37.929Z,38.65
2022-09-07T09:41:40.444Z,39.58
2022-09-07T09:43:51.547Z,38.75
2022-09-07T09:46:12.654Z,39.67
2022-09-07T09:48:22.566Z,40.21
2022-09-07T09:52:55.393Z,38.80
2022-09-07T09:55:17.241Z,39.98
2022-09-07T10:00:27.916Z,40.81
2022-09-07T10:04:55.739Z,40.05
2022-09-07T10:07:16.582Z,39.58
2022-09-07T10:09:29.552Z,39.44
2022-09-07T10:12:09.817Z,39.90
2022-09-07T10:14:25.199Z,39.96
2022-09-07T10:16:40.484Z,40.47
2022-09-07T10:18:57.606Z,39.23
2022-09-07T10:21:35.568Z,37.10
2022-09-07T10:23:38.460Z,37.59
2022-09-07T10:25:45.457Z,36.99
2022-09-07T10:27:47.894Z,36.61
2022-09-07T10:29:50.456Z,37.28
2022-09-07T10:32:05.974Z,36.56
2022-09-07T10:34:29.477Z,36.28
2022-09-07T10:36:47.394Z,35.94
2022-09-07T10:39:25.657Z,36.37
2022-09-07T10:41:46.202Z,35.29
2022-09-07T10:43:50.749Z,35.14
2022-09-07T10:45:59.425Z,34.47
2022-09-07T10:48:59.820Z,35.27
2022-09-07T10:51:14.509Z,35.19
2022-09-07T10:53:44.909Z,33.98
2022-09-07T10:56:06.378Z,33.57
2022-09-07T10:58:20.777Z,33.02
2022-09-07T11:00:24.488Z,33.09
2022-09-07T11:03:27.138Z,33.09
2022-09-07T11:05:38.787Z,31.63
2022-09-07T11:07:59.809Z,31.42
2022-09-07T11:10:17.019Z,32.03
2022-09-07T11:12:27.963Z,31.16
2022-09-07T11:14:38.336Z,31.29
2022-09-07T11:16:51.915Z,30.16
2022-09-07T11:24:12.197Z,28.56
2022-09-07T11:26:19.921Z,26.50
2022-09-07T11:28:38.428Z,24.72
2022-09-07T11:30:46.911Z,23.77
2022-09-07T11:32:54.992Z,23.24
2022-09-07T11:35:00.003Z,22.88
2022-09-07T11:37:46.588Z,21.93
2022-09-07T11:39:58.883Z,20.28
2022-09-07T11:44:49.788Z,21.84
2022-09-07T11:46:55.855Z,22.15
2022-09-07T11:48:58.769Z,22.98
2022-09-07T11:51:08.160Z,22.90
2022-09-07T11:53:26.954Z,24.97
2022-09-07T11:55:35.536Z,23.85
2022-09-07T11:58:19.560Z,24.35
2022-09-07T12:00:27.982Z,23.50
2022-09-07T12:03:08.066Z,23.62
2022-09-07T12:05:30.550Z,24.39
2022-09-07T12:07:39.177Z,23.03
2022-09-07T12:09:44.327Z,24.37
2022-09-07T12:12:19.369Z,23.61
2022-09-07T12:14:34.134Z,22.96
2022-09-07T12:16:55.251Z,20.33
2022-09-07T12:19:00.359Z,21.02
2022-09-07T12:21:03.411Z,21.39
2022-09-07T12:23:27.034Z,19.70
2022-09-07T12:25:30.215Z,20.60
2022-09-07T12:27:32.742Z,21.37
2022-09-07T12:29:35.174Z,20.79
2022-09-07T12:31:57.816Z,20.74
2022-09-07T12:34:29.758Z,21.19
2022-09-07T12:36:32.189Z,22.84
2022-09-07T12:38:37.089Z,23.73
2022-09-07T12:40:46.038Z,22.58
2022-09-07T12:42:48.389Z,21.31
2022-09-07T12:45:28.833Z,20.53
2022-09-07T12:47:31.335Z,20.41
2022-09-07T12:49:36.556Z,20.64
2022-09-07T12:54:27.263Z,20.81
2022-09-07T12:59:42.806Z,20.71
2022-09-07T13:02:05.133Z,18.95
2022-09-07T13:04:29.278Z,19.47
2022-09-07T13:09:31.125Z,17.98
2022-09-07T13:11:38.414Z,19.08
2022-09-07T13:16:05.922Z,19.19
2022-09-07T13:18:36.644Z,20.32
2022-09-07T13:20:41.491Z,22.75
2022-09-07T13:22:44.717Z,25.44
2022-09-07T13:24:53.282Z,27.08
2022-09-07T13:27:43.513Z,29.45
2022-09-07T13:29:55.298Z,29.44
2022-09-07T13:32:13.357Z,29.71
2022-09-07T13:34:32.572Z,29.51
2022-09-07T13:36:39.481Z,30.05
2022-09-07T13:38:43.538Z,30.51
2022-09-07T13:40:47.950Z,30.36
2022-09-07T13:42:52.344Z,30.11
2022-09-07T13:45:00.785Z,30.61
2022-09-07T13:47:14.155Z,31.43
2022-09-07T13:49:58.786Z,31.02
2022-09-07T13:52:16.512Z,31.15
2022-09-07T13:54:48.041Z,31.82
2022-09-07T13:57:09.576Z,31.21
2022-09-07T13:59:23.845Z,31.73
2022-09-07T14:01:28.726Z,31.61
2022-09-07T14:03:39.351Z,31.67
2022-09-07T14:05:41.483Z,31.73
2022-09-07T14:07:47.518Z,31.18
2022-09-07T14:09:51.183Z,31.08
2022-09-07T14:11:55.713Z,31.43
2022-09-07T14:14:13.899Z,31.68
2022-09-07T14:16:16.477Z,31.87
2022-09-07T14:18:30.410Z,32.10
2022-09-07T14:20:40.650Z,32.16
2022-09-07T14:22:44.225Z,32.15
2022-09-07T14:24:57.970Z,32.10
2022-09-07T14:27:00.731Z,32.78
2022-09-07T14:29:03.425Z,32.24
2022-09-07T14:31:10.147Z,32.11
2022-09-07T14:33:17.379Z,32.39
2022-09-07T14:35:31.957Z,32.11
2022-09-07T14:37:34.401Z,31.70
2022-09-07T14:39:41.615Z,32.26
2022-09-07T14:41:45.287Z,32.21
2022-09-07T14:43:56.249Z,32.48
2022-09-07T14:46:19.782Z,33.02
2022-09-07T14:48:31.473Z,32.87
2022-09-07T14:50:41.427Z,32.75
2022-09-07T14:53:34.101Z,32.99
2022-09-07T14:55:28.361Z,33.05
2022-09-07T14:57:32.378Z,33.01
2022-09-07T14:59:48.246Z,32.76
2022-09-07T15:01:51.001Z,33.13
2022-09-07T15:04:02.519Z,32.88
2022-09-07T15:06:06.488Z,33.76
2022-09-07T15:08:19.899Z,34.51
2022-09-07T15:10:23.210Z,34.00
2022-09-07T15:12:38.159Z,33.44
2022-09-07T15:14:42.294Z,33.40
2022-09-07T15:16:45.378Z,33.47
2022-09-07T15:19:05.732Z,33.88
2022-09-07T15:21:09.038Z,34.23
2022-09-07T15:23:16.942Z,34.42
2022-09-07T15:25:19.288Z,34.48
2022-09-07T15:27:28.844Z,34.49
2022-09-07T15:29:32.143Z,34.68
2022-09-07T15:31:42.528Z,34.28
2022-09-07T15:33:47.873Z,34.41
2022-09-07T15:35:52.113Z,34.12
2022-09-07T15:38:03.263Z,34.17
2022-09-07T15:40:20.717Z,34.55
2022-09-07T15:44:46.007Z,34.34
2022-09-07T15:49:12.549Z,34.82
2022-09-07T15:56:03.135Z,35.18
2022-09-07T15:58:11.875Z,35.13
2022-09-07T16:00:15.126Z,35.00
2022-09-07T16:04:40.090Z,35.02
2022-09-07T16:06:42.585Z,35.49
2022-09-07T16:08:45.304Z,36.03
2022-09-07T16:10:55.852Z,35.72
2022-09-07T16:13:01.513Z,35.42
2022-09-07T16:15:05.887Z,35.87
2022-09-07T16:19:30.895Z,35.88
2022-09-07T16:21:41.010Z,35.91
2022-09-07T16:23:48.847Z,36.22
2022-09-07T16:25:59.972Z,36.29
2022-09-07T16:28:04.292Z,36.54
2022-09-07T16:30:07.119Z,36.55
2022-09-07T16:34:32.893Z,36.73
2022-09-07T16:36:35.202Z,37.37
2022-09-07T16:38:55.391Z,37.88
2022-09-07T16:41:01.126Z,38.46
2022-09-07T16:43:03.393Z,38.11
2022-09-07T16:47:28.765Z,38.47
2022-09-07T16:49:31.253Z,38.46
2022-09-07T16:51:34.903Z,39.15
2022-09-07T16:53:38.202Z,38.39
2022-09-07T16:55:41.925Z,38.65
2022-09-07T17:00:07.352Z,39.57
2022-09-07T17:02:16.093Z,38.64
2022-09-07T17:04:18.809Z,39.21
2022-09-07T17:06:24.832Z,39.18
2022-09-07T17:08:27.704Z,39.57
2022-09-07T17:10:30.067Z,39.74
2022-09-07T17:12:32.614Z,39.41
2022-09-07T17:14:34.901Z,39.67
2022-09-07T17:16:39.826Z,39.83
2022-09-07T17:21:06.964Z,40.37
2022-09-07T17:23:09.429Z,40.69
2022-09-07T17:25:14.117Z,40.59
2022-09-07T17:27:16.568Z,40.26
2022-09-07T17:29:19.056Z,40.65
2022-09-07T17:33:53.045Z,40.76
2022-09-07T17:35:55.475Z,40.68
2022-09-07T17:37:58.327Z,40.83
2022-09-07T17:40:01.273Z,41.11
2022-09-07T17:42:07.559Z,41.42
2022-09-07T17:44:10.266Z,41.92
2022-09-07T17:46:15.840Z,42.34
2022-09-07T17:48:18.188Z,42.16
2022-09-07T17:50:20.841Z,42.24
2022-09-07T17:52:23.347Z,42.12
2022-09-07T17:54:25.962Z,41.30
2022-09-07T17:56:29.296Z,41.82
2022-09-07T17:58:31.799Z,42.04
2022-09-07T18:00:34.775Z,41.34
2022-09-07T18:02:37.724Z,41.21
2022-09-07T18:04:40.480Z,41.48
2022-09-07T18:06:43.168Z,41.74
2022-09-07T18:08:52.856Z,41.35
2022-09-07T18:13:25.541Z,42.05
2022-09-07T18:15:38.787Z,42.01
2022-09-07T18:17:41.522Z,41.68
2022-09-07T18:19:44.216Z,42.08
2022-09-07T18:21:48.258Z,42.26
2022-09-07T18:23:56.539Z,42.24
2022-09-07T18:25:59.306Z,41.60
2022-09-07T18:30:26.266Z,39.60
2022-09-07T18:32:28.933Z,38.23
2022-09-07T18:34:32.224Z,38.15
2022-09-07T18:36:36.092Z,36.24
2022-09-07T18:38:38.820Z,36.24
2022-09-07T18:40:41.919Z,35.55
2022-09-07T18:42:45.084Z,35.46
2022-09-07T18:47:17.466Z,35.38
2022-09-07T18:49:24.988Z,34.69
2022-09-07T18:51:28.107Z,35.50
2022-09-07T18:53:32.315Z,35.72
2022-09-07T18:55:35.099Z,36.09
2022-09-07T18:57:38.369Z,35.57
2022-09-07T18:59:41.382Z,35.45
2022-09-07T19:01:44.303Z,34.17
2022-09-07T19:03:54.145Z,34.11
2022-09-07T19:05:59.226Z,34.60
2022-09-07T19:08:03.781Z,33.76
2022-09-07T19:10:08.395Z,34.23
2022-09-07T19:12:11.415Z,34.61
2022-09-07T19:14:14.254Z,34.96
2022-09-07T19:16:19.490Z,34.25
2022-09-07T19:18:22.464Z,34.02
2022-09-07T19:20:26.386Z,34.07
2022-09-07T19:22:29.001Z,35.00
2022-09-07T19:24:32.218Z,35.27
2022-09-07T19:26:37.945Z,35.40
2022-09-07T19:28:40.601Z,34.80
2022-09-07T19:30:43.557Z,35.02
2022-09-07T19:32:46.206Z,34.26
2022-09-07T19:34:54.723Z,33.67
2022-09-07T19:36:57.698Z,34.40
2022-09-07T19:39:01.086Z,34.66
2022-09-07T19:41:04.212Z,35.56
2022-09-07T19:43:08.690Z,35.34
2022-09-07T19:45:11.758Z,34.99
2022-09-07T19:47:14.401Z,33.94
2022-09-07T19:49:17.499Z,34.00
2022-09-07T19:51:20.290Z,35.48
2022-09-07T19:53:23.972Z,36.25
2022-09-07T19:55:27.956Z,36.62
2022-09-07T19:57:30.607Z,35.72
2022-09-07T19:59:33.400Z,35.71
2022-09-07T20:01:38.106Z,35.16
2022-09-07T20:03:42.422Z,37.11
2022-09-07T20:05:45.096Z,36.49
2022-09-07T20:07:47.722Z,36.20
2022-09-07T20:09:51.785Z,37.14
2022-09-07T20:11:57.211Z,36.40
2022-09-07T20:13:59.789Z,37.00
2022-09-07T20:16:11.962Z,37.11
2022-09-07T20:18:15.217Z,37.67
2022-09-07T20:20:18.107Z,37.65
2022-09-07T20:22:20.952Z,36.34
2022-09-07T20:24:23.802Z,36.37
2022-09-07T20:26:26.409Z,35.66
2022-09-07T20:28:30.029Z,36.07
2022-09-07T20:30:33.902Z,36.11
2022-09-07T20:32:36.400Z,37.01
2022-09-07T20:34:39.117Z,37.67
2022-09-07T20:36:41.804Z,36.91
2022-09-07T20:38:51.203Z,37.25
2022-09-07T20:40:56.239Z,38.39
2022-09-07T20:42:58.844Z,37.91
2022-09-07T20:45:02.251Z,37.70
2022-09-07T20:47:05.005Z,37.02
2022-09-07T20:49:07.503Z,36.63
2022-09-07T20:51:12.514Z,36.14
2022-09-07T20:53:15.149Z,37.61
2022-09-07T20:55:17.601Z,37.75
2022-09-07T20:57:19.877Z,38.41
2022-09-07T20:59:22.503Z,39.16
2022-09-07T21:01:25.195Z,38.49
2022-09-07T21:03:28.926Z,38.30
2022-09-07T21:05:35.535Z,38.77
2022-09-07T21:07:38.957Z,39.36
2022-09-07T21:09:41.262Z,37.94
2022-09-07T21:11:48.567Z,38.08
2022-09-07T21:13:59.779Z,38.24
2022-09-07T21:16:12.356Z,37.85
2022-09-07T21:18:16.711Z,37.82
2022-09-07T21:20:19.028Z,37.49
2022-09-07T21:22:21.469Z,38.58
2022-09-07T21:24:24.222Z,38.30
2022-09-07T21:26:28.290Z,37.88
2022-09-07T21:28:30.849Z,38.23
2022-09-07T21:30:33.386Z,38.36
2022-09-07T21:32:35.784Z,40.11
2022-09-07T21:34:38.069Z,39.66
2022-09-07T21:36:40.632Z,38.90
2022-09-07T21:38:42.899Z,39.66
2022-09-07T21:40:45.177Z,40.04
2022-09-07T21:42:47.720Z,39.37
2022-09-07T21:44:49.939Z,39.98
2022-09-07T21:46:52.353Z,39.69
2022-09-07T21:48:56.623Z,39.94
2022-09-07T21:50:58.832Z,39.69
2022-09-07T21:53:01.612Z,40.05
2022-09-07T21:55:04.925Z,39.59
2022-09-07T21:57:07.252Z,39.88
2022-09-07T21:59:09.625Z,40.04
